Wilson Cadiz — 8PSY — position and weather

sailwx.info

Track history (hours):
 
Tides and Currents Weather Stations Pressure Air Temp Water Temp Dewpoint Dewpoint Depression Visibility Wind Speed Wind Dir Waves Ship Positions

Wilson Cadiz

Last reported at 2014-Sep-21 17:25 UTC. Time now 2014-Sep-21 18:09 UTC.
Position N 54°07' E 012°05'.

Length 100 m; draft 3.4 m.

Type: Ship. MMSI: 314216000.

Date/timePositionNaut miles runAvg speedWind from/ knotsBaromVisibWave heightAir tempDewpointWater temp
2014-Sep-21 17:25N 54°07' E 012°05'0 0.0
2014-Sep-21 16:33N 54°07' E 012°05'0 0.0
2014-Sep-21 15:25N 54°07' E 012°05'0 0.0
2014-Sep-21 14:31N 54°07' E 012°05'0 0.0
2014-Sep-21 13:31N 54°07' E 012°05'0 0.0
2014-Sep-21 12:28N 54°07' E 012°05'0 0.0
2014-Sep-21 11:28N 54°07' E 012°05'0 0.0
2014-Sep-21 10:28N 54°07' E 012°05'0 0.0
2014-Sep-21 09:25N 54°07' E 012°05'0 0.0
2014-Sep-21 08:28N 54°07' E 012°05'0 0.0
2014-Sep-21 07:25N 54°07' E 012°05'0 0.0
2014-Sep-21 04:31N 54°07' E 012°05'0 0.0
2014-Sep-21 03:31N 54°07' E 012°05'0 0.0
2014-Sep-21 02:31N 54°07' E 012°05'0 0.0
2014-Sep-21 01:31N 54°07' E 012°05'0 0.0
2014-Sep-21 00:31N 54°07' E 012°05'0 0.0
2014-Sep-20 23:31N 54°07' E 012°05'0 0.1
2014-Sep-20 22:31N 54°07' E 012°05'0 0.0
2014-Sep-20 21:31N 54°07' E 012°05'0 0.0
2014-Sep-20 20:31N 54°07' E 012°05'0 0.0
2014-Sep-20 19:31N 54°07' E 012°05'0 0.0
2014-Sep-20 18:31N 54°07' E 012°05'0 0.0
2014-Sep-20 17:31N 54°07' E 012°05'0 0.0
2014-Sep-20 16:31N 54°07' E 012°05'0 0.0
2014-Sep-20 15:31N 54°07' E 012°05'0 0.0
2014-Sep-20 14:31N 54°07' E 012°05'0 0.0
2014-Sep-20 13:28N 54°07' E 012°05'0 0.0
2014-Sep-20 12:28N 54°07' E 012°05'0 0.0
2014-Sep-20 11:10N 54°07' E 012°05'0 0.0
2014-Sep-20 10:28N 54°07' E 012°05'0 0.0
2014-Sep-20 09:31N 54°07' E 012°05'0 0.0
2014-Sep-20 08:31N 54°07' E 012°05'0 0.0
2014-Sep-20 07:31N 54°07' E 012°05'0 0.0
2014-Sep-20 06:31N 54°07' E 012°05'0 0.0
2014-Sep-20 05:28N 54°07' E 012°05'2 2.6
2014-Sep-20 04:33N 54°09' E 012°06'1 0.7
2014-Sep-20 03:33N 54°09' E 012°07'0 0.1
2014-Sep-20 02:33N 54°09' E 012°07'0 0.0
2014-Sep-20 01:33N 54°09' E 012°07'0 0.0
2014-Sep-20 00:33N 54°09' E 012°07'0 0.0
2014-Sep-19 23:33N 54°09' E 012°07'0 0.1
2014-Sep-19 22:33N 54°09' E 012°07'0 0.1
2014-Sep-19 21:33N 54°09' E 012°07'0 0.0
2014-Sep-19 20:30N 54°09' E 012°07'0 0.0
2014-Sep-19 19:30N 54°09' E 012°07'0 0.0
2014-Sep-19 18:33N 54°09' E 012°07'0 0.0
2014-Sep-19 17:33N 54°09' E 012°07'0 0.0
2014-Sep-19 16:33N 54°09' E 012°07'0 0.0
2014-Sep-19 15:33N 54°09' E 012°07'0 0.0
2014-Sep-19 14:33N 54°09' E 012°07'0 0.0
2014-Sep-19 13:33N 54°09' E 012°07'0 0.4
2014-Sep-19 12:33N 54°09' E 012°07'7 6.7
2014-Sep-19 11:33N 54°15' E 012°02'9 9.2
2014-Sep-19 10:33N 54°24' E 012°07'1110.6
2014-Sep-19 09:33N 54°34' E 012°13'1110.5
2014-Sep-19 08:33N 54°43' E 012°22'1110.8
2014-Sep-19 07:33N 54°52' E 012°32'1010.0
2014-Sep-19 06:33N 55°01' E 012°37'1110.6
2014-Sep-19 05:33N 55°12' E 012°38'1110.5
2014-Sep-19 04:33N 55°23' E 012°38'1010.3
2014-Sep-19 03:33N 55°33' E 012°42'10 9.8
2014-Sep-19 02:33N 55°42' E 012°41'1010.0
2014-Sep-19 01:33N 55°52' E 012°39'10 9.9
2014-Sep-19 00:33N 56°02' E 012°38'8 7.8
2014-Sep-18 23:33N 56°08' E 012°29'10 9.8
2014-Sep-18 22:33N 56°13' E 012°14'9 9.4
2014-Sep-18 21:33N 56°20' E 012°02'10 9.7
2014-Sep-18 20:31N 56°30' E 011°57'9 9.6
2014-Sep-18 19:33N 56°39' E 011°52'9 8.9
2014-Sep-18 18:33N 56°48' E 011°51'1110.6
2014-Sep-18 17:30N 56°58' E 011°44'1010.7
2014-Sep-18 16:33N 57°07' E 011°37'1110.7
2014-Sep-18 15:33N 57°17' E 011°31'1110.6
2014-Sep-18 14:33N 57°27' E 011°24'1110.5
2014-Sep-18 13:33N 57°34' E 011°09'10 9.9
2014-Sep-18 12:33N 57°41' E 010°56'143 8.8
2014-Sep-17 20:17N 58°02' E 006°30'7 9.6
2014-Sep-17 19:33N 58°07' E 006°19'9 9.1
2014-Sep-17 18:33N 58°13' E 006°07'9 8.9
2014-Sep-17 17:33N 58°20' E 005°55'8 7.7
2014-Sep-17 16:33N 58°26' E 005°48'4 3.9
2014-Sep-17 15:32N 58°28' E 005°55'0 0.0
2014-Sep-17 14:32N 58°28' E 005°55'0 0.0
2014-Sep-17 13:32N 58°28' E 005°55'0 0.0
2014-Sep-17 12:32N 58°28' E 005°55'0 0.0
2014-Sep-17 11:29N 58°28' E 005°55'0 0.0
2014-Sep-17 10:32N 58°28' E 005°55'0 0.0
2014-Sep-17 09:32N 58°28' E 005°55'0 0.0
2014-Sep-17 08:32N 58°28' E 005°55'0 0.0
2014-Sep-17 07:32N 58°28' E 005°55'0 0.0
2014-Sep-17 06:32N 58°28' E 005°55'0 0.0
2014-Sep-17 05:32N 58°28' E 005°55'1 1.2
2014-Sep-17 04:33N 58°27' E 005°53'8 7.7
2014-Sep-17 03:33N 58°21' E 006°02'10 9.7
2014-Sep-17 02:33N 58°14' E 006°15'9 9.1
2014-Sep-17 01:33N 58°07' E 006°25'  
2014-Sep-14 07:20N 57°52' E 010°29'810.2
2014-Sep-14 06:31N 57°49' E 010°43'1310.9
2014-Sep-14 05:18N 57°40' E 011°02'811.1
2014-Sep-14 04:34N 57°34' E 011°13'1110.7
2014-Sep-14 03:32N 57°26' E 011°27'1110.8
2014-Sep-14 02:33N 57°16' E 011°34'1110.7
2014-Sep-14 01:33N 57°06' E 011°40'4210.4
2014-Sep-13 21:34N 56°26' E 012°02'10 9.8
2014-Sep-13 20:33N 56°17' E 012°07'1111.0
2014-Sep-13 19:33N 56°11' E 012°23'1212.1
2014-Sep-13 18:33N 56°03' E 012°40'1110.5
2014-Sep-13 17:33N 55°53' E 012°44'1010.4
2014-Sep-13 16:33N 55°43' E 012°41'1010.4
2014-Sep-13 15:33N 55°32' E 012°43'1010.4
2014-Sep-13 14:33N 55°22' E 012°41'9 9.1
2014-Sep-13 13:33N 55°16' E 012°54'1110.7
2014-Sep-13 12:33N 55°16' E 013°13'10610.2
2014-Sep-13 02:10N 55°56' E 016°05'710.9
2014-Sep-13 01:33N 55°60' E 016°16'6710.9
2014-Sep-12 19:24N 56°38' E 017°54'1410.9
2014-Sep-12 18:06N 56°46' E 018°15'610.8
2014-Sep-12 17:32N 56°50' E 018°25'1110.9
2014-Sep-12 16:31N 56°55' E 018°42'  
Track history (hours):
 
Tides and Currents Weather Stations Pressure Air Temp Water Temp Dewpoint Dewpoint Depression Visibility Wind Speed Wind Dir Waves Ship Positions

Wilson Cadiz

Last reported at 2014-Sep-21 17:25 UTC. Time now 2014-Sep-21 18:09 UTC.
Position N 54°07' E 012°05'.

Length 100 m; draft 3.4 m.

Type: Ship. MMSI: 314216000.

Date/timePositionNaut miles runAvg speedWind from/ knotsBaromVisibWave heightAir tempDewpointWater temp
2014-Sep-21 17:25N 54°07' E 012°05'0 0.0
2014-Sep-21 16:33N 54°07' E 012°05'0 0.0
2014-Sep-21 15:25N 54°07' E 012°05'0 0.0
2014-Sep-21 14:31N 54°07' E 012°05'0 0.0
2014-Sep-21 13:31N 54°07' E 012°05'0 0.0
2014-Sep-21 12:28N 54°07' E 012°05'0 0.0
2014-Sep-21 11:28N 54°07' E 012°05'0 0.0
2014-Sep-21 10:28N 54°07' E 012°05'0 0.0
2014-Sep-21 09:25N 54°07' E 012°05'0 0.0
2014-Sep-21 08:28N 54°07' E 012°05'0 0.0
2014-Sep-21 07:25N 54°07' E 012°05'0 0.0
2014-Sep-21 04:31N 54°07' E 012°05'0 0.0
2014-Sep-21 03:31N 54°07' E 012°05'0 0.0
2014-Sep-21 02:31N 54°07' E 012°05'0 0.0
2014-Sep-21 01:31N 54°07' E 012°05'0 0.0
2014-Sep-21 00:31N 54°07' E 012°05'0 0.0
2014-Sep-20 23:31N 54°07' E 012°05'0 0.1
2014-Sep-20 22:31N 54°07' E 012°05'0 0.0
2014-Sep-20 21:31N 54°07' E 012°05'0 0.0
2014-Sep-20 20:31N 54°07' E 012°05'0 0.0
2014-Sep-20 19:31N 54°07' E 012°05'0 0.0
2014-Sep-20 18:31N 54°07' E 012°05'0 0.0
2014-Sep-20 17:31N 54°07' E 012°05'0 0.0
2014-Sep-20 16:31N 54°07' E 012°05'0 0.0
2014-Sep-20 15:31N 54°07' E 012°05'0 0.0
2014-Sep-20 14:31N 54°07' E 012°05'0 0.0
2014-Sep-20 13:28N 54°07' E 012°05'0 0.0
2014-Sep-20 12:28N 54°07' E 012°05'0 0.0
2014-Sep-20 11:10N 54°07' E 012°05'0 0.0
2014-Sep-20 10:28N 54°07' E 012°05'0 0.0
2014-Sep-20 09:31N 54°07' E 012°05'0 0.0
2014-Sep-20 08:31N 54°07' E 012°05'0 0.0
2014-Sep-20 07:31N 54°07' E 012°05'0 0.0
2014-Sep-20 06:31N 54°07' E 012°05'0 0.0
2014-Sep-20 05:28N 54°07' E 012°05'2 2.6
2014-Sep-20 04:33N 54°09' E 012°06'1 0.7
2014-Sep-20 03:33N 54°09' E 012°07'0 0.1
2014-Sep-20 02:33N 54°09' E 012°07'0 0.0
2014-Sep-20 01:33N 54°09' E 012°07'0 0.0
2014-Sep-20 00:33N 54°09' E 012°07'0 0.0
2014-Sep-19 23:33N 54°09' E 012°07'0 0.1
2014-Sep-19 22:33N 54°09' E 012°07'0 0.1
2014-Sep-19 21:33N 54°09' E 012°07'0 0.0
2014-Sep-19 20:30N 54°09' E 012°07'0 0.0
2014-Sep-19 19:30N 54°09' E 012°07'0 0.0
2014-Sep-19 18:33N 54°09' E 012°07'0 0.0
2014-Sep-19 17:33N 54°09' E 012°07'0 0.0
2014-Sep-19 16:33N 54°09' E 012°07'0 0.0
2014-Sep-19 15:33N 54°09' E 012°07'0 0.0
2014-Sep-19 14:33N 54°09' E 012°07'0 0.0
2014-Sep-19 13:33N 54°09' E 012°07'0 0.4
2014-Sep-19 12:33N 54°09' E 012°07'7 6.7
2014-Sep-19 11:33N 54°15' E 012°02'9 9.2
2014-Sep-19 10:33N 54°24' E 012°07'1110.6
2014-Sep-19 09:33N 54°34' E 012°13'1110.5
2014-Sep-19 08:33N 54°43' E 012°22'1110.8
2014-Sep-19 07:33N 54°52' E 012°32'1010.0
2014-Sep-19 06:33N 55°01' E 012°37'1110.6
2014-Sep-19 05:33N 55°12' E 012°38'1110.5
2014-Sep-19 04:33N 55°23' E 012°38'1010.3
2014-Sep-19 03:33N 55°33' E 012°42'10 9.8
2014-Sep-19 02:33N 55°42' E 012°41'1010.0
2014-Sep-19 01:33N 55°52' E 012°39'10 9.9
2014-Sep-19 00:33N 56°02' E 012°38'8 7.8
2014-Sep-18 23:33N 56°08' E 012°29'10 9.8
2014-Sep-18 22:33N 56°13' E 012°14'9 9.4
2014-Sep-18 21:33N 56°20' E 012°02'10 9.7
2014-Sep-18 20:31N 56°30' E 011°57'9 9.6
2014-Sep-18 19:33N 56°39' E 011°52'9 8.9
2014-Sep-18 18:33N 56°48' E 011°51'1110.6
2014-Sep-18 17:30N 56°58' E 011°44'1010.7
2014-Sep-18 16:33N 57°07' E 011°37'1110.7
2014-Sep-18 15:33N 57°17' E 011°31'1110.6
2014-Sep-18 14:33N 57°27' E 011°24'1110.5
2014-Sep-18 13:33N 57°34' E 011°09'10 9.9
2014-Sep-18 12:33N 57°41' E 010°56'143 8.8
2014-Sep-17 20:17N 58°02' E 006°30'7 9.6
2014-Sep-17 19:33N 58°07' E 006°19'9 9.1
2014-Sep-17 18:33N 58°13' E 006°07'9 8.9
2014-Sep-17 17:33N 58°20' E 005°55'8 7.7
2014-Sep-17 16:33N 58°26' E 005°48'4 3.9
2014-Sep-17 15:32N 58°28' E 005°55'0 0.0
2014-Sep-17 14:32N 58°28' E 005°55'0 0.0
2014-Sep-17 13:32N 58°28' E 005°55'0 0.0
2014-Sep-17 12:32N 58°28' E 005°55'0 0.0
2014-Sep-17 11:29N 58°28' E 005°55'0 0.0
2014-Sep-17 10:32N 58°28' E 005°55'0 0.0
2014-Sep-17 09:32N 58°28' E 005°55'0 0.0
2014-Sep-17 08:32N 58°28' E 005°55'0 0.0
2014-Sep-17 07:32N 58°28' E 005°55'0 0.0
2014-Sep-17 06:32N 58°28' E 005°55'0 0.0
2014-Sep-17 05:32N 58°28' E 005°55'1 1.2
2014-Sep-17 04:33N 58°27' E 005°53'8 7.7
2014-Sep-17 03:33N 58°21' E 006°02'10 9.7
2014-Sep-17 02:33N 58°14' E 006°15'9 9.1
2014-Sep-17 01:33N 58°07' E 006°25'  
2014-Sep-14 07:20N 57°52' E 010°29'810.2
2014-Sep-14 06:31N 57°49' E 010°43'1310.9
2014-Sep-14 05:18N 57°40' E 011°02'811.1
2014-Sep-14 04:34N 57°34' E 011°13'1110.7
2014-Sep-14 03:32N 57°26' E 011°27'1110.8
2014-Sep-14 02:33N 57°16' E 011°34'1110.7
2014-Sep-14 01:33N 57°06' E 011°40'4210.4
2014-Sep-13 21:34N 56°26' E 012°02'10 9.8
2014-Sep-13 20:33N 56°17' E 012°07'1111.0
2014-Sep-13 19:33N 56°11' E 012°23'1212.1
2014-Sep-13 18:33N 56°03' E 012°40'1110.5
2014-Sep-13 17:33N 55°53' E 012°44'1010.4
2014-Sep-13 16:33N 55°43' E 012°41'1010.4
2014-Sep-13 15:33N 55°32' E 012°43'1010.4
2014-Sep-13 14:33N 55°22' E 012°41'9 9.1
2014-Sep-13 13:33N 55°16' E 012°54'1110.7
2014-Sep-13 12:33N 55°16' E 013°13'10610.2
2014-Sep-13 02:10N 55°56' E 016°05'710.9
2014-Sep-13 01:33N 55°60' E 016°16'6710.9
2014-Sep-12 19:24N 56°38' E 017°54'1410.9
2014-Sep-12 18:06N 56°46' E 018°15'610.8
2014-Sep-12 17:32N 56°50' E 018°25'1110.9
2014-Sep-12 16:31N 56°55' E 018°42'  

Dump ship's entire track history